sensor_id;sensor_type;location;lat;lon;timestamp;temperature;humidity
9151;DHT22;4610;50.006;7.490;2022-10-30T00:00:31;11.90;99.90
9151;DHT22;4610;50.006;7.490;2022-10-30T00:02:57;11.80;99.90
9151;DHT22;4610;50.006;7.490;2022-10-30T00:05:24;11.70;99.90
9151;DHT22;4610;50.006;7.490;2022-10-30T00:07:53;11.70;99.90
9151;DHT22;4610;50.006;7.490;2022-10-30T00:10:20;11.70;99.90
9151;DHT22;4610;50.006;7.490;2022-10-30T00:12:47;11.70;99.90
9151;DHT22;4610;50.006;7.490;2022-10-30T00:15:15;11.70;99.90
9151;DHT22;4610;50.006;7.490;2022-10-30T00:17:42;11.60;99.90
9151;DHT22;4610;50.006;7.490;2022-10-30T00:20:10;11.50;99.90
9151;DHT22;4610;50.006;7.490;2022-10-30T00:22:36;11.40;99.90
9151;DHT22;4610;50.006;7.490;2022-10-30T00:25:04;11.50;99.90
9151;DHT22;4610;50.006;7.490;2022-10-30T00:27:31;11.50;99.90
9151;DHT22;4610;50.006;7.490;2022-10-30T00:29:58;11.60;99.90
9151;DHT22;4610;50.006;7.490;2022-10-30T00:32:26;11.50;99.90
9151;DHT22;4610;50.006;7.490;2022-10-30T00:34:53;11.50;99.90
9151;DHT22;4610;50.006;7.490;2022-10-30T00:37:20;11.50;99.90
9151;DHT22;4610;50.006;7.490;2022-10-30T00:39:47;11.40;99.90
9151;DHT22;4610;50.006;7.490;2022-10-30T00:42:14;11.30;99.90
9151;DHT22;4610;50.006;7.490;2022-10-30T00:44:44;11.30;99.90
9151;DHT22;4610;50.006;7.490;2022-10-30T00:47:16;11.30;99.90
9151;DHT22;4610;50.006;7.490;2022-10-30T00:49:51;11.30;99.90
9151;DHT22;4610;50.006;7.490;2022-10-30T00:52:21;11.20;99.90
9151;DHT22;4610;50.006;7.490;2022-10-30T00:54:49;11.10;99.90
9151;DHT22;4610;50.006;7.490;2022-10-30T00:57:17;11.10;99.90
9151;DHT22;4610;50.006;7.490;2022-10-30T00:59:45;11.20;99.90
9151;DHT22;4610;50.006;7.490;2022-10-30T01:02:13;11.20;99.90
9151;DHT22;4610;50.006;7.490;2022-10-30T01:04:41;11.10;99.90
9151;DHT22;4610;50.006;7.490;2022-10-30T01:07:14;11.00;99.90
9151;DHT22;4610;50.006;7.490;2022-10-30T01:09:42;10.90;99.90
9151;DHT22;4610;50.006;7.490;2022-10-30T01:12:09;10.80;99.90
9151;DHT22;4610;50.006;7.490;2022-10-30T01:14:39;10.80;99.90
9151;DHT22;4610;50.006;7.490;2022-10-30T01:17:18;10.80;99.90
9151;DHT22;4610;50.006;7.490;2022-10-30T01:19:57;10.80;99.90
9151;DHT22;4610;50.006;7.490;2022-10-30T01:22:40;10.80;99.90
9151;DHT22;4610;50.006;7.490;2022-10-30T01:25:26;10.80;99.90
9151;DHT22;4610;50.006;7.490;2022-10-30T01:28:03;10.80;99.90
9151;DHT22;4610;50.006;7.490;2022-10-30T01:30:45;10.70;99.90
9151;DHT22;4610;50.006;7.490;2022-10-30T01:33:24;10.70;99.90
9151;DHT22;4610;50.006;7.490;2022-10-30T01:36:00;10.60;99.90
9151;DHT22;4610;50.006;7.490;2022-10-30T01:38:35;10.60;99.90
9151;DHT22;4610;50.006;7.490;2022-10-30T01:41:02;10.50;99.90
9151;DHT22;4610;50.006;7.490;2022-10-30T01:43:30;10.40;99.90
9151;DHT22;4610;50.006;7.490;2022-10-30T01:46:21;10.30;99.90
9151;DHT22;4610;50.006;7.490;2022-10-30T01:49:10;10.20;99.90
9151;DHT22;4610;50.006;7.490;2022-10-30T01:51:50;10.10;99.90
9151;DHT22;4610;50.006;7.490;2022-10-30T01:54:29;10.10;99.90
9151;DHT22;4610;50.006;7.490;2022-10-30T01:57:04;10.10;99.90
9151;DHT22;4610;50.006;7.490;2022-10-30T01:59:36;10.00;99.90
9151;DHT22;4610;50.006;7.490;2022-10-30T02:02:05;10.00;99.90
9151;DHT22;4610;50.006;7.490;2022-10-30T02:04:32;10.00;99.90
9151;DHT22;4610;50.006;7.490;2022-10-30T02:06:59;10.00;99.90
9151;DHT22;4610;50.006;7.490;2022-10-30T02:09:28;9.90;99.90
9151;DHT22;4610;50.006;7.490;2022-10-30T02:11:55;9.90;99.90
9151;DHT22;4610;50.006;7.490;2022-10-30T02:14:25;9.80;99.90
9151;DHT22;4610;50.006;7.490;2022-10-30T02:16:55;9.70;99.90
9151;DHT22;4610;50.006;7.490;2022-10-30T02:19:23;9.60;99.90
9151;DHT22;4610;50.006;7.490;2022-10-30T02:21:51;9.60;99.90
9151;DHT22;4610;50.006;7.490;2022-10-30T02:24:18;9.50;99.90
9151;DHT22;4610;50.006;7.490;2022-10-30T02:26:45;9.50;99.90
9151;DHT22;4610;50.006;7.490;2022-10-30T02:29:12;9.60;99.90
9151;DHT22;4610;50.006;7.490;2022-10-30T02:31:39;9.60;99.90
9151;DHT22;4610;50.006;7.490;2022-10-30T02:34:06;9.60;99.90
9151;DHT22;4610;50.006;7.490;2022-10-30T02:36:33;9.70;99.90
9151;DHT22;4610;50.006;7.490;2022-10-30T02:39:01;9.60;99.90
9151;DHT22;4610;50.006;7.490;2022-10-30T02:41:28;9.60;99.90
9151;DHT22;4610;50.006;7.490;2022-10-30T02:43:54;9.50;99.90
9151;DHT22;4610;50.006;7.490;2022-10-30T02:46:21;9.40;99.90
9151;DHT22;4610;50.006;7.490;2022-10-30T02:48:48;9.40;99.90
9151;DHT22;4610;50.006;7.490;2022-10-30T02:51:15;9.40;99.90
9151;DHT22;4610;50.006;7.490;2022-10-30T02:53:42;9.50;99.90
9151;DHT22;4610;50.006;7.490;2022-10-30T02:56:12;9.50;99.90
9151;DHT22;4610;50.006;7.490;2022-10-30T02:58:39;9.60;99.90
9151;DHT22;4610;50.006;7.490;2022-10-30T03:01:07;9.70;99.90
9151;DHT22;4610;50.006;7.490;2022-10-30T03:03:34;9.60;99.90
9151;DHT22;4610;50.006;7.490;2022-10-30T03:06:02;9.60;99.90
9151;DHT22;4610;50.006;7.490;2022-10-30T03:08:29;9.50;99.90
9151;DHT22;4610;50.006;7.490;2022-10-30T03:11:00;9.40;99.90
9151;DHT22;4610;50.006;7.490;2022-10-30T03:13:30;9.20;99.90
9151;DHT22;4610;50.006;7.490;2022-10-30T03:16:01;9.20;99.90
9151;DHT22;4610;50.006;7.490;2022-10-30T03:18:28;9.30;99.90
9151;DHT22;4610;50.006;7.490;2022-10-30T03:20:56;9.10;99.90
9151;DHT22;4610;50.006;7.490;2022-10-30T03:23:23;9.10;99.90
9151;DHT22;4610;50.006;7.490;2022-10-30T03:28:20;9.10;99.90
9151;DHT22;4610;50.006;7.490;2022-10-30T03:30:50;9.10;99.90
9151;DHT22;4610;50.006;7.490;2022-10-30T03:33:17;9.20;99.90
9151;DHT22;4610;50.006;7.490;2022-10-30T03:35:44;9.20;99.90
9151;DHT22;4610;50.006;7.490;2022-10-30T03:38:11;9.20;99.90
9151;DHT22;4610;50.006;7.490;2022-10-30T03:40:38;9.30;99.90
9151;DHT22;4610;50.006;7.490;2022-10-30T03:43:05;9.30;99.90
9151;DHT22;4610;50.006;7.490;2022-10-30T03:45:33;9.30;99.90
9151;DHT22;4610;50.006;7.490;2022-10-30T03:48:03;9.30;99.90
9151;DHT22;4610;50.006;7.490;2022-10-30T03:50:30;9.20;99.90
9151;DHT22;4610;50.006;7.490;2022-10-30T03:52:57;9.10;99.90
9151;DHT22;4610;50.006;7.490;2022-10-30T03:55:24;9.00;99.90
9151;DHT22;4610;50.006;7.490;2022-10-30T03:57:51;9.00;99.90
9151;DHT22;4610;50.006;7.490;2022-10-30T04:00:18;8.90;99.90
9151;DHT22;4610;50.006;7.490;2022-10-30T04:02:45;8.90;99.90
9151;DHT22;4610;50.006;7.490;2022-10-30T04:05:15;8.90;99.90
9151;DHT22;4610;50.006;7.490;2022-10-30T04:07:42;8.90;99.90
9151;DHT22;4610;50.006;7.490;2022-10-30T04:10:09;8.90;99.90
9151;DHT22;4610;50.006;7.490;2022-10-30T04:12:36;8.80;99.90
9151;DHT22;4610;50.006;7.490;2022-10-30T04:15:04;8.80;99.90
9151;DHT22;4610;50.006;7.490;2022-10-30T04:17:31;8.90;99.90
9151;DHT22;4610;50.006;7.490;2022-10-30T04:19:58;8.90;99.90
9151;DHT22;4610;50.006;7.490;2022-10-30T04:22:26;8.90;99.90
9151;DHT22;4610;50.006;7.490;2022-10-30T04:24:53;8.90;99.90
9151;DHT22;4610;50.006;7.490;2022-10-30T04:27:20;9.00;99.90
9151;DHT22;4610;50.006;7.490;2022-10-30T04:29:46;9.00;99.90
9151;DHT22;4610;50.006;7.490;2022-10-30T04:32:13;9.00;99.90
9151;DHT22;4610;50.006;7.490;2022-10-30T04:34:40;9.10;99.90
9151;DHT22;4610;50.006;7.490;2022-10-30T04:37:07;9.10;99.90
9151;DHT22;4610;50.006;7.490;2022-10-30T04:39:35;9.10;99.90
9151;DHT22;4610;50.006;7.490;2022-10-30T04:42:02;9.10;99.90
9151;DHT22;4610;50.006;7.490;2022-10-30T04:44:29;9.10;99.90
9151;DHT22;4610;50.006;7.490;2022-10-30T04:46:56;9.00;99.90
9151;DHT22;4610;50.006;7.490;2022-10-30T04:49:22;9.00;99.90
9151;DHT22;4610;50.006;7.490;2022-10-30T04:51:49;8.90;99.90
9151;DHT22;4610;50.006;7.490;2022-10-30T04:54:16;8.90;99.90
9151;DHT22;4610;50.006;7.490;2022-10-30T04:56:44;8.90;99.90
9151;DHT22;4610;50.006;7.490;2022-10-30T04:59:11;8.90;99.90
9151;DHT22;4610;50.006;7.490;2022-10-30T05:01:37;8.90;99.90
9151;DHT22;4610;50.006;7.490;2022-10-30T05:04:04;8.90;99.90
9151;DHT22;4610;50.006;7.490;2022-10-30T05:06:32;8.90;99.90
9151;DHT22;4610;50.006;7.490;2022-10-30T05:08:59;8.80;99.90
9151;DHT22;4610;50.006;7.490;2022-10-30T05:11:25;8.70;99.90
9151;DHT22;4610;50.006;7.490;2022-10-30T05:13:54;8.70;99.90
9151;DHT22;4610;50.006;7.490;2022-10-30T05:16:21;8.70;99.90
9151;DHT22;4610;50.006;7.490;2022-10-30T05:18:48;8.70;99.90
9151;DHT22;4610;50.006;7.490;2022-10-30T05:21:14;8.70;99.90
9151;DHT22;4610;50.006;7.490;2022-10-30T05:23:41;8.60;99.90
9151;DHT22;4610;50.006;7.490;2022-10-30T05:26:08;8.60;99.90
9151;DHT22;4610;50.006;7.490;2022-10-30T05:28:35;8.60;99.90
9151;DHT22;4610;50.006;7.490;2022-10-30T05:31:03;8.60;99.90
9151;DHT22;4610;50.006;7.490;2022-10-30T05:33:30;8.40;99.90
9151;DHT22;4610;50.006;7.490;2022-10-30T05:35:56;8.40;99.90
9151;DHT22;4610;50.006;7.490;2022-10-30T05:38:23;8.50;99.90
9151;DHT22;4610;50.006;7.490;2022-10-30T05:40:50;8.50;99.90
9151;DHT22;4610;50.006;7.490;2022-10-30T05:43:17;8.60;99.90
9151;DHT22;4610;50.006;7.490;2022-10-30T05:45:44;8.70;99.90
9151;DHT22;4610;50.006;7.490;2022-10-30T05:48:12;8.70;99.90
9151;DHT22;4610;50.006;7.490;2022-10-30T05:50:38;8.70;99.90
9151;DHT22;4610;50.006;7.490;2022-10-30T05:53:05;8.60;99.90
9151;DHT22;4610;50.006;7.490;2022-10-30T05:55:32;8.60;99.90
9151;DHT22;4610;50.006;7.490;2022-10-30T05:58:00;8.60;99.90
9151;DHT22;4610;50.006;7.490;2022-10-30T06:00:29;8.50;99.90
9151;DHT22;4610;50.006;7.490;2022-10-30T06:02:59;8.40;99.90
9151;DHT22;4610;50.006;7.490;2022-10-30T06:05:29;8.30;99.90
9151;DHT22;4610;50.006;7.490;2022-10-30T06:07:57;8.30;99.90
9151;DHT22;4610;50.006;7.490;2022-10-30T06:10:24;8.20;99.90
9151;DHT22;4610;50.006;7.490;2022-10-30T06:12:52;8.20;99.90
9151;DHT22;4610;50.006;7.490;2022-10-30T06:15:19;8.10;99.90
9151;DHT22;4610;50.006;7.490;2022-10-30T06:17:45;8.20;99.90
9151;DHT22;4610;50.006;7.490;2022-10-30T06:20:12;8.20;99.90
9151;DHT22;4610;50.006;7.490;2022-10-30T06:22:41;8.10;99.90
9151;DHT22;4610;50.006;7.490;2022-10-30T06:25:08;8.00;99.90
9151;DHT22;4610;50.006;7.490;2022-10-30T06:27:35;7.90;99.90
9151;DHT22;4610;50.006;7.490;2022-10-30T06:30:02;8.00;99.90
9151;DHT22;4610;50.006;7.490;2022-10-30T06:32:28;8.00;99.90
9151;DHT22;4610;50.006;7.490;2022-10-30T06:34:55;8.00;99.90
9151;DHT22;4610;50.006;7.490;2022-10-30T06:37:22;8.00;99.90
9151;DHT22;4610;50.006;7.490;2022-10-30T06:39:50;8.00;99.90
9151;DHT22;4610;50.006;7.490;2022-10-30T06:42:17;8.10;99.90
9151;DHT22;4610;50.006;7.490;2022-10-30T06:44:43;8.20;99.90
9151;DHT22;4610;50.006;7.490;2022-10-30T06:47:10;8.30;99.90
9151;DHT22;4610;50.006;7.490;2022-10-30T06:49:37;8.40;99.90
9151;DHT22;4610;50.006;7.490;2022-10-30T06:52:04;8.40;99.90
9151;DHT22;4610;50.006;7.490;2022-10-30T06:54:30;8.40;99.90
9151;DHT22;4610;50.006;7.490;2022-10-30T06:56:58;8.30;99.90
9151;DHT22;4610;50.006;7.490;2022-10-30T06:59:26;8.40;99.90
9151;DHT22;4610;50.006;7.490;2022-10-30T07:01:53;8.50;99.90
9151;DHT22;4610;50.006;7.490;2022-10-30T07:04:20;8.60;99.90
9151;DHT22;4610;50.006;7.490;2022-10-30T07:06:47;8.70;99.90
9151;DHT22;4610;50.006;7.490;2022-10-30T07:09:14;8.80;99.90
9151;DHT22;4610;50.006;7.490;2022-10-30T07:11:41;8.80;99.90
9151;DHT22;4610;50.006;7.490;2022-10-30T07:14:11;8.90;99.90
9151;DHT22;4610;50.006;7.490;2022-10-30T07:16:38;9.00;99.90
9151;DHT22;4610;50.006;7.490;2022-10-30T07:19:05;9.10;99.90
9151;DHT22;4610;50.006;7.490;2022-10-30T07:21:31;9.20;99.90
9151;DHT22;4610;50.006;7.490;2022-10-30T07:23:58;9.20;99.90
9151;DHT22;4610;50.006;7.490;2022-10-30T07:26:25;9.30;99.90
9151;DHT22;4610;50.006;7.490;2022-10-30T07:28:52;9.40;99.90
9151;DHT22;4610;50.006;7.490;2022-10-30T07:31:20;9.40;99.90
9151;DHT22;4610;50.006;7.490;2022-10-30T07:33:46;9.50;99.90
9151;DHT22;4610;50.006;7.490;2022-10-30T07:36:13;9.60;99.90
9151;DHT22;4610;50.006;7.490;2022-10-30T07:38:40;9.80;99.90
9151;DHT22;4610;50.006;7.490;2022-10-30T07:41:07;9.90;99.90
9151;DHT22;4610;50.006;7.490;2022-10-30T07:43:33;10.20;99.90
9151;DHT22;4610;50.006;7.490;2022-10-30T07:46:00;10.40;99.90
9151;DHT22;4610;50.006;7.490;2022-10-30T07:48:28;10.70;99.90
9151;DHT22;4610;50.006;7.490;2022-10-30T07:50:55;11.30;99.90
9151;DHT22;4610;50.006;7.490;2022-10-30T07:53:22;12.20;99.90
9151;DHT22;4610;50.006;7.490;2022-10-30T07:55:49;12.90;99.90
9151;DHT22;4610;50.006;7.490;2022-10-30T07:58:15;13.80;99.90
9151;DHT22;4610;50.006;7.490;2022-10-30T08:00:42;14.60;99.90
9151;DHT22;4610;50.006;7.490;2022-10-30T08:03:10;15.60;99.90
9151;DHT22;4610;50.006;7.490;2022-10-30T08:05:39;16.50;99.90
9151;DHT22;4610;50.006;7.490;2022-10-30T08:08:06;17.40;99.90
9151;DHT22;4610;50.006;7.490;2022-10-30T08:10:33;18.00;99.90
9151;DHT22;4610;50.006;7.490;2022-10-30T08:13:01;18.50;99.90
9151;DHT22;4610;50.006;7.490;2022-10-30T08:15:27;18.90;99.90
9151;DHT22;4610;50.006;7.490;2022-10-30T08:17:54;19.20;99.90
9151;DHT22;4610;50.006;7.490;2022-10-30T08:20:23;19.50;99.90
9151;DHT22;4610;50.006;7.490;2022-10-30T08:22:52;19.60;99.90
9151;DHT22;4610;50.006;7.490;2022-10-30T08:25:22;19.80;99.90
9151;DHT22;4610;50.006;7.490;2022-10-30T08:27:53;20.10;99.90
9151;DHT22;4610;50.006;7.490;2022-10-30T08:30:21;20.30;99.90
9151;DHT22;4610;50.006;7.490;2022-10-30T08:32:48;20.60;99.90
9151;DHT22;4610;50.006;7.490;2022-10-30T08:35:15;20.80;99.90
9151;DHT22;4610;50.006;7.490;2022-10-30T08:37:42;21.20;99.90
9151;DHT22;4610;50.006;7.490;2022-10-30T08:40:10;21.40;99.90
9151;DHT22;4610;50.006;7.490;2022-10-30T08:42:37;21.50;99.90
9151;DHT22;4610;50.006;7.490;2022-10-30T08:45:05;21.70;99.90
9151;DHT22;4610;50.006;7.490;2022-10-30T08:47:32;21.90;99.90
9151;DHT22;4610;50.006;7.490;2022-10-30T08:49:59;22.20;99.90
9151;DHT22;4610;50.006;7.490;2022-10-30T08:52:26;22.20;99.90
9151;DHT22;4610;50.006;7.490;2022-10-30T08:54:52;22.40;99.90
9151;DHT22;4610;50.006;7.490;2022-10-30T08:57:21;22.60;99.90
9151;DHT22;4610;50.006;7.490;2022-10-30T08:59:47;22.90;99.90
9151;DHT22;4610;50.006;7.490;2022-10-30T09:02:14;23.50;99.90
9151;DHT22;4610;50.006;7.490;2022-10-30T09:04:41;23.70;99.90
9151;DHT22;4610;50.006;7.490;2022-10-30T09:07:08;23.40;99.90
9151;DHT22;4610;50.006;7.490;2022-10-30T09:09:34;22.90;99.90
9151;DHT22;4610;50.006;7.490;2022-10-30T09:12:01;22.40;99.90
9151;DHT22;4610;50.006;7.490;2022-10-30T09:14:30;22.20;99.90
9151;DHT22;4610;50.006;7.490;2022-10-30T09:16:56;22.50;99.90
9151;DHT22;4610;50.006;7.490;2022-10-30T09:19:23;22.80;99.90
9151;DHT22;4610;50.006;7.490;2022-10-30T09:21:50;23.00;99.90
9151;DHT22;4610;50.006;7.490;2022-10-30T09:24:16;23.00;99.90
9151;DHT22;4610;50.006;7.490;2022-10-30T09:26:44;23.00;99.90
9151;DHT22;4610;50.006;7.490;2022-10-30T09:29:11;23.30;99.90
9151;DHT22;4610;50.006;7.490;2022-10-30T09:31:39;23.50;99.90
9151;DHT22;4610;50.006;7.490;2022-10-30T09:34:06;23.60;99.90
9151;DHT22;4610;50.006;7.490;2022-10-30T09:36:33;23.50;99.90
9151;DHT22;4610;50.006;7.490;2022-10-30T09:39:00;23.50;99.90
9151;DHT22;4610;50.006;7.490;2022-10-30T09:41:45;23.50;99.90
9151;DHT22;4610;50.006;7.490;2022-10-30T09:44:24;23.50;99.90
9151;DHT22;4610;50.006;7.490;2022-10-30T09:47:10;23.30;99.90
9151;DHT22;4610;50.006;7.490;2022-10-30T09:49:54;23.30;99.90
9151;DHT22;4610;50.006;7.490;2022-10-30T09:52:27;23.50;99.90
9151;DHT22;4610;50.006;7.490;2022-10-30T09:55:08;23.50;99.90
9151;DHT22;4610;50.006;7.490;2022-10-30T09:57:47;23.40;99.90
9151;DHT22;4610;50.006;7.490;2022-10-30T10:00:18;23.40;99.90
9151;DHT22;4610;50.006;7.490;2022-10-30T10:03:07;23.50;99.90
9151;DHT22;4610;50.006;7.490;2022-10-30T10:05:42;23.50;99.90
9151;DHT22;4610;50.006;7.490;2022-10-30T10:08:15;23.40;99.90
9151;DHT22;4610;50.006;7.490;2022-10-30T10:10:44;23.20;99.90
9151;DHT22;4610;50.006;7.490;2022-10-30T10:13:22;23.00;99.90
9151;DHT22;4610;50.006;7.490;2022-10-30T10:15:53;22.80;99.90
9151;DHT22;4610;50.006;7.490;2022-10-30T10:18:27;22.80;99.90
9151;DHT22;4610;50.006;7.490;2022-10-30T10:20:58;22.70;99.90
9151;DHT22;4610;50.006;7.490;2022-10-30T10:23:32;22.60;99.90
9151;DHT22;4610;50.006;7.490;2022-10-30T10:26:22;22.20;99.90
9151;DHT22;4610;50.006;7.490;2022-10-30T10:29:00;22.00;99.90
9151;DHT22;4610;50.006;7.490;2022-10-30T10:31:38;21.80;99.90
9151;DHT22;4610;50.006;7.490;2022-10-30T10:34:23;21.70;99.90
9151;DHT22;4610;50.006;7.490;2022-10-30T10:36:57;21.70;99.90
9151;DHT22;4610;50.006;7.490;2022-10-30T10:39:40;21.70;99.90
9151;DHT22;4610;50.006;7.490;2022-10-30T10:42:18;21.70;99.90
9151;DHT22;4610;50.006;7.490;2022-10-30T10:44:54;21.70;99.90
9151;DHT22;4610;50.006;7.490;2022-10-30T10:47:38;21.60;99.90
9151;DHT22;4610;50.006;7.490;2022-10-30T10:50:18;21.60;99.90
9151;DHT22;4610;50.006;7.490;2022-10-30T10:52:50;21.50;99.90
9151;DHT22;4610;50.006;7.490;2022-10-30T10:55:21;21.60;99.90
9151;DHT22;4610;50.006;7.490;2022-10-30T10:57:50;21.50;99.90
9151;DHT22;4610;50.006;7.490;2022-10-30T11:00:19;21.50;99.90
9151;DHT22;4610;50.006;7.490;2022-10-30T11:02:53;21.60;99.90
9151;DHT22;4610;50.006;7.490;2022-10-30T11:05:29;21.60;99.90
9151;DHT22;4610;50.006;7.490;2022-10-30T11:08:00;21.60;99.90
9151;DHT22;4610;50.006;7.490;2022-10-30T11:10:29;21.60;99.90
9151;DHT22;4610;50.006;7.490;2022-10-30T11:12:56;21.70;99.90
9151;DHT22;4610;50.006;7.490;2022-10-30T11:15:32;21.80;99.90
9151;DHT22;4610;50.006;7.490;2022-10-30T11:18:03;21.90;99.90
9151;DHT22;4610;50.006;7.490;2022-10-30T11:20:36;21.90;99.90
9151;DHT22;4610;50.006;7.490;2022-10-30T11:23:30;21.80;99.90
9151;DHT22;4610;50.006;7.490;2022-10-30T11:25:57;21.70;99.90
9151;DHT22;4610;50.006;7.490;2022-10-30T11:28:34;21.70;99.90
9151;DHT22;4610;50.006;7.490;2022-10-30T11:31:17;21.60;99.90
9151;DHT22;4610;50.006;7.490;2022-10-30T11:33:44;21.60;99.90
9151;DHT22;4610;50.006;7.490;2022-10-30T11:36:16;21.50;99.90
9151;DHT22;4610;50.006;7.490;2022-10-30T11:38:43;21.40;99.90
9151;DHT22;4610;50.006;7.490;2022-10-30T11:41:10;21.40;99.90
9151;DHT22;4610;50.006;7.490;2022-10-30T11:43:39;21.30;99.90
9151;DHT22;4610;50.006;7.490;2022-10-30T11:46:08;21.30;99.90
9151;DHT22;4610;50.006;7.490;2022-10-30T11:48:38;21.30;99.90
9151;DHT22;4610;50.006;7.490;2022-10-30T11:51:09;21.30;99.90
9151;DHT22;4610;50.006;7.490;2022-10-30T11:53:40;21.40;99.90
9151;DHT22;4610;50.006;7.490;2022-10-30T11:56:13;21.50;99.90
9151;DHT22;4610;50.006;7.490;2022-10-30T11:58:43;21.70;99.90
9151;DHT22;4610;50.006;7.490;2022-10-30T12:01:18;21.70;99.90
9151;DHT22;4610;50.006;7.490;2022-10-30T12:03:46;21.90;99.90
9151;DHT22;4610;50.006;7.490;2022-10-30T12:06:17;21.80;99.90
9151;DHT22;4610;50.006;7.490;2022-10-30T12:09:08;21.80;99.90
9151;DHT22;4610;50.006;7.490;2022-10-30T12:11:36;21.80;99.90
9151;DHT22;4610;50.006;7.490;2022-10-30T12:14:04;21.80;99.90
9151;DHT22;4610;50.006;7.490;2022-10-30T12:16:32;21.80;99.90
9151;DHT22;4610;50.006;7.490;2022-10-30T12:19:02;21.90;99.90
9151;DHT22;4610;50.006;7.490;2022-10-30T12:21:34;21.90;99.90
9151;DHT22;4610;50.006;7.490;2022-10-30T12:24:04;21.80;99.90
9151;DHT22;4610;50.006;7.490;2022-10-30T12:26:34;21.80;99.90
9151;DHT22;4610;50.006;7.490;2022-10-30T12:29:03;21.70;99.90
9151;DHT22;4610;50.006;7.490;2022-10-30T12:31:35;21.60;99.90
9151;DHT22;4610;50.006;7.490;2022-10-30T12:34:11;21.50;99.90
9151;DHT22;4610;50.006;7.490;2022-10-30T12:36:44;21.50;99.90
9151;DHT22;4610;50.006;7.490;2022-10-30T12:39:17;21.20;99.90
9151;DHT22;4610;50.006;7.490;2022-10-30T12:41:54;21.20;99.90
9151;DHT22;4610;50.006;7.490;2022-10-30T12:44:26;21.10;99.90
9151;DHT22;4610;50.006;7.490;2022-10-30T12:46:58;20.90;99.90
9151;DHT22;4610;50.006;7.490;2022-10-30T12:49:30;20.90;99.90
9151;DHT22;4610;50.006;7.490;2022-10-30T12:52:04;20.80;99.90
9151;DHT22;4610;50.006;7.490;2022-10-30T12:54:38;20.90;99.90
9151;DHT22;4610;50.006;7.490;2022-10-30T12:57:10;20.90;99.90
9151;DHT22;4610;50.006;7.490;2022-10-30T12:59:45;20.90;99.90
9151;DHT22;4610;50.006;7.490;2022-10-30T13:02:24;21.00;99.90
9151;DHT22;4610;50.006;7.490;2022-10-30T13:04:57;21.00;99.90
9151;DHT22;4610;50.006;7.490;2022-10-30T13:07:28;21.00;99.90
9151;DHT22;4610;50.006;7.490;2022-10-30T13:10:21;20.90;99.90
9151;DHT22;4610;50.006;7.490;2022-10-30T13:13:02;20.90;99.90
9151;DHT22;4610;50.006;7.490;2022-10-30T13:15:34;20.90;99.90
9151;DHT22;4610;50.006;7.490;2022-10-30T13:18:16;20.90;99.90
9151;DHT22;4610;50.006;7.490;2022-10-30T13:20:55;20.80;99.90
9151;DHT22;4610;50.006;7.490;2022-10-30T13:23:27;20.80;99.90
9151;DHT22;4610;50.006;7.490;2022-10-30T13:26:06;20.80;99.90
9151;DHT22;4610;50.006;7.490;2022-10-30T13:28:41;20.70;99.90
9151;DHT22;4610;50.006;7.490;2022-10-30T13:31:17;20.70;99.90
9151;DHT22;4610;50.006;7.490;2022-10-30T13:33:53;20.70;99.90
9151;DHT22;4610;50.006;7.490;2022-10-30T13:36:28;20.60;99.90
9151;DHT22;4610;50.006;7.490;2022-10-30T13:39:00;20.60;99.90
9151;DHT22;4610;50.006;7.490;2022-10-30T13:41:37;20.60;99.90
9151;DHT22;4610;50.006;7.490;2022-10-30T13:44:17;20.50;99.90
9151;DHT22;4610;50.006;7.490;2022-10-30T13:47:02;20.40;99.90
9151;DHT22;4610;50.006;7.490;2022-10-30T13:49:45;20.30;99.90
9151;DHT22;4610;50.006;7.490;2022-10-30T13:52:16;20.20;99.90
9151;DHT22;4610;50.006;7.490;2022-10-30T13:54:53;20.20;99.90
9151;DHT22;4610;50.006;7.490;2022-10-30T13:57:26;20.10;99.90
9151;DHT22;4610;50.006;7.490;2022-10-30T14:00:02;20.00;99.90
9151;DHT22;4610;50.006;7.490;2022-10-30T14:02:41;20.00;99.90
9151;DHT22;4610;50.006;7.490;2022-10-30T14:05:18;19.90;99.90
9151;DHT22;4610;50.006;7.490;2022-10-30T14:07:52;20.00;99.90
9151;DHT22;4610;50.006;7.490;2022-10-30T14:10:30;20.00;99.90
9151;DHT22;4610;50.006;7.490;2022-10-30T14:13:13;19.90;99.90
9151;DHT22;4610;50.006;7.490;2022-10-30T14:15:44;19.90;99.90
9151;DHT22;4610;50.006;7.490;2022-10-30T14:18:44;19.90;99.90
9151;DHT22;4610;50.006;7.490;2022-10-30T14:21:50;20.00;99.90
9151;DHT22;4610;50.006;7.490;2022-10-30T14:24:20;20.00;99.90
9151;DHT22;4610;50.006;7.490;2022-10-30T14:26:50;20.00;99.90
9151;DHT22;4610;50.006;7.490;2022-10-30T14:29:42;20.00;99.90
9151;DHT22;4610;50.006;7.490;2022-10-30T14:32:33;20.00;99.90
9151;DHT22;4610;50.006;7.490;2022-10-30T14:35:01;19.90;99.90
9151;DHT22;4610;50.006;7.490;2022-10-30T14:37:53;19.90;99.90
9151;DHT22;4610;50.006;7.490;2022-10-30T14:40:35;19.80;99.90
9151;DHT22;4610;50.006;7.490;2022-10-30T14:43:07;19.70;99.90
9151;DHT22;4610;50.006;7.490;2022-10-30T14:45:41;19.60;99.90
9151;DHT22;4610;50.006;7.490;2022-10-30T14:48:16;19.50;99.90
9151;DHT22;4610;50.006;7.490;2022-10-30T14:51:02;19.30;99.90
9151;DHT22;4610;50.006;7.490;2022-10-30T14:53:43;19.20;99.90
9151;DHT22;4610;50.006;7.490;2022-10-30T14:56:22;19.20;99.90
9151;DHT22;4610;50.006;7.490;2022-10-30T14:59:16;19.00;99.90
9151;DHT22;4610;50.006;7.490;2022-10-30T15:01:50;18.90;99.90
9151;DHT22;4610;50.006;7.490;2022-10-30T15:04:24;18.90;99.90
9151;DHT22;4610;50.006;7.490;2022-10-30T15:07:00;18.80;99.90
9151;DHT22;4610;50.006;7.490;2022-10-30T15:09:39;18.70;99.90
9151;DHT22;4610;50.006;7.490;2022-10-30T15:12:31;18.60;99.90
9151;DHT22;4610;50.006;7.490;2022-10-30T15:15:01;18.60;99.90
9151;DHT22;4610;50.006;7.490;2022-10-30T15:17:31;18.50;99.90
9151;DHT22;4610;50.006;7.490;2022-10-30T15:20:04;18.40;99.90
9151;DHT22;4610;50.006;7.490;2022-10-30T15:22:33;18.30;99.90
9151;DHT22;4610;50.006;7.490;2022-10-30T15:25:00;18.20;99.90
9151;DHT22;4610;50.006;7.490;2022-10-30T15:27:28;18.10;99.90
9151;DHT22;4610;50.006;7.490;2022-10-30T15:29:59;18.00;99.90
9151;DHT22;4610;50.006;7.490;2022-10-30T15:32:26;17.90;99.90
9151;DHT22;4610;50.006;7.490;2022-10-30T15:34:55;17.80;99.90
9151;DHT22;4610;50.006;7.490;2022-10-30T15:37:25;17.80;99.90
9151;DHT22;4610;50.006;7.490;2022-10-30T15:40:15;17.70;99.90
9151;DHT22;4610;50.006;7.490;2022-10-30T15:42:42;17.60;99.90
9151;DHT22;4610;50.006;7.490;2022-10-30T15:45:16;17.60;99.90
9151;DHT22;4610;50.006;7.490;2022-10-30T15:47:46;17.50;99.90
9151;DHT22;4610;50.006;7.490;2022-10-30T15:50:15;17.50;99.90
9151;DHT22;4610;50.006;7.490;2022-10-30T15:52:45;17.40;99.90
9151;DHT22;4610;50.006;7.490;2022-10-30T15:55:15;17.30;99.90
9151;DHT22;4610;50.006;7.490;2022-10-30T15:57:44;17.20;99.90
9151;DHT22;4610;50.006;7.490;2022-10-30T16:00:23;17.20;99.90
9151;DHT22;4610;50.006;7.490;2022-10-30T16:03:02;17.00;99.90
9151;DHT22;4610;50.006;7.490;2022-10-30T16:05:29;16.90;99.90
9151;DHT22;4610;50.006;7.490;2022-10-30T16:07:59;16.80;99.90
9151;DHT22;4610;50.006;7.490;2022-10-30T16:10:31;16.80;99.90
9151;DHT22;4610;50.006;7.490;2022-10-30T16:12:59;16.60;99.90
9151;DHT22;4610;50.006;7.490;2022-10-30T16:15:27;16.50;99.90
9151;DHT22;4610;50.006;7.490;2022-10-30T16:18:09;16.40;99.90
9151;DHT22;4610;50.006;7.490;2022-10-30T16:20:40;16.30;99.90
9151;DHT22;4610;50.006;7.490;2022-10-30T16:23:08;16.20;99.90
9151;DHT22;4610;50.006;7.490;2022-10-30T16:25:35;16.10;99.90
9151;DHT22;4610;50.006;7.490;2022-10-30T16:28:04;16.00;99.90
9151;DHT22;4610;50.006;7.490;2022-10-30T16:30:31;16.00;99.90
9151;DHT22;4610;50.006;7.490;2022-10-30T16:32:59;15.80;99.90